createdAt,value
2024-01-28T00:00:21.198Z,1.90
2024-01-28T00:03:09.741Z,2.10
2024-01-28T00:05:38.223Z,2.60
2024-01-28T00:08:07.284Z,2.00
2024-01-28T00:10:35.354Z,2.70
2024-01-28T00:13:03.725Z,3.20
2024-01-28T00:15:31.854Z,2.40
2024-01-28T00:17:59.975Z,3.00
2024-01-28T00:20:28.235Z,2.70
2024-01-28T00:22:56.458Z,4.80
2024-01-28T00:25:24.708Z,3.30
2024-01-28T00:27:52.723Z,4.30
2024-01-28T00:30:20.927Z,4.50
2024-01-28T00:32:49.049Z,3.70
2024-01-28T00:35:17.386Z,3.50
2024-01-28T00:37:45.918Z,3.80
2024-01-28T00:40:14.235Z,3.90
2024-01-28T00:42:42.397Z,2.40
2024-01-28T00:45:11.479Z,2.10
2024-01-28T00:48:30.187Z,2.90
2024-01-28T00:51:00.685Z,5.40
2024-01-28T00:53:29.433Z,5.00
2024-01-28T00:55:58.571Z,5.20
2024-01-28T00:58:30.301Z,3.00
2024-01-28T01:00:58.458Z,4.20
2024-01-28T01:03:26.988Z,4.00
2024-01-28T01:05:55.272Z,4.20
2024-01-28T01:08:23.521Z,4.00
2024-01-28T01:10:51.679Z,4.30
2024-01-28T01:13:20.433Z,6.50
2024-01-28T01:15:48.525Z,6.30
2024-01-28T01:18:17.017Z,4.70
2024-01-28T01:20:45.142Z,6.00
2024-01-28T01:23:14.360Z,5.80
2024-01-28T01:25:42.469Z,5.40
2024-01-28T01:28:11.468Z,4.60
2024-01-28T01:30:40.866Z,5.90
2024-01-28T01:33:09.379Z,5.20
2024-01-28T01:35:37.711Z,5.70
2024-01-28T01:38:05.691Z,5.60
2024-01-28T01:40:33.702Z,9.00
2024-01-28T01:43:10.406Z,4.40
2024-01-28T01:45:42.682Z,5.40
2024-01-28T01:48:12.976Z,6.90
2024-01-28T01:50:42.713Z,7.60
2024-01-28T01:53:11.848Z,8.80
2024-01-28T01:55:41.584Z,5.80
2024-01-28T01:58:10.642Z,4.70
2024-01-28T02:00:39.330Z,4.40
2024-01-28T02:03:07.924Z,7.10
2024-01-28T02:05:36.197Z,7.60
2024-01-28T02:08:04.661Z,6.90
2024-01-28T02:10:32.748Z,8.80
2024-01-28T02:13:01.007Z,7.00
2024-01-28T02:15:29.234Z,6.10
2024-01-28T02:17:57.507Z,8.90
2024-01-28T02:20:25.812Z,5.70
2024-01-28T02:22:53.875Z,9.30
2024-01-28T02:25:22.193Z,9.80
2024-01-28T02:27:50.577Z,8.90
2024-01-28T02:30:18.983Z,9.00
2024-01-28T02:32:51.382Z,12.60
2024-01-28T02:35:20.527Z,10.30
2024-01-28T02:37:49.292Z,9.50
2024-01-28T02:40:17.820Z,9.70
2024-01-28T02:42:46.689Z,7.00
2024-01-28T02:45:14.927Z,10.40
2024-01-28T02:47:43.038Z,10.20
2024-01-28T02:50:11.294Z,11.30
2024-01-28T02:52:39.674Z,14.20
2024-01-28T02:55:08.250Z,14.30
2024-01-28T02:57:36.463Z,10.60
2024-01-28T03:00:05.456Z,10.60
2024-01-28T03:02:34.048Z,9.50
2024-01-28T03:05:03.765Z,13.00
2024-01-28T03:07:33.160Z,13.30
2024-01-28T03:10:02.756Z,8.60
2024-01-28T03:12:31.794Z,15.90
2024-01-28T03:15:04.811Z,8.50
2024-01-28T03:17:35.694Z,13.30
2024-01-28T03:20:07.484Z,9.00
2024-01-28T03:22:35.798Z,15.60
2024-01-28T03:25:06.932Z,11.00
2024-01-28T03:27:37.259Z,11.10
2024-01-28T03:30:15.495Z,15.00
2024-01-28T03:32:46.598Z,10.10
2024-01-28T03:35:23.461Z,12.10
2024-01-28T03:37:51.863Z,12.00
2024-01-28T03:43:05.474Z,15.70
2024-01-28T03:45:33.702Z,10.40
2024-01-28T03:48:02.428Z,9.80
2024-01-28T03:50:31.131Z,10.50
2024-01-28T03:52:59.309Z,15.40
2024-01-28T03:55:28.106Z,9.80
2024-01-28T03:57:56.335Z,11.70
2024-01-28T04:00:32.729Z,12.00
2024-01-28T04:03:04.361Z,15.60
2024-01-28T04:05:34.217Z,13.10
2024-01-28T04:08:03.422Z,8.60
2024-01-28T04:10:32.382Z,13.30
2024-01-28T04:13:00.500Z,8.70
2024-01-28T04:15:29.364Z,8.40
2024-01-28T04:17:58.214Z,13.50
2024-01-28T04:20:28.131Z,9.90
2024-01-28T04:22:56.417Z,9.80
2024-01-28T04:25:25.669Z,9.60
2024-01-28T04:27:54.167Z,13.90
2024-01-28T04:30:28.307Z,10.10
2024-01-28T04:33:21.896Z,7.10
2024-01-28T04:35:50.517Z,10.10
2024-01-28T04:38:18.524Z,11.50
2024-01-28T04:40:46.565Z,10.40
2024-01-28T04:43:14.729Z,8.60
2024-01-28T04:45:42.887Z,6.20
2024-01-28T04:48:15.755Z,9.50
2024-01-28T04:50:43.830Z,11.70
2024-01-28T04:53:13.764Z,9.10
2024-01-28T04:55:42.685Z,11.90
2024-01-28T04:58:10.792Z,6.80
2024-01-28T05:00:39.529Z,10.00
2024-01-28T05:03:11.965Z,9.40
2024-01-28T05:05:40.249Z,7.30
2024-01-28T05:08:08.431Z,6.10
2024-01-28T05:10:41.006Z,7.30
2024-01-28T05:13:09.091Z,8.80
2024-01-28T05:15:37.541Z,7.60
2024-01-28T05:18:06.725Z,9.20
2024-01-28T05:20:37.076Z,9.10
2024-01-28T05:23:08.049Z,11.20
2024-01-28T05:25:36.129Z,10.00
2024-01-28T05:28:29.513Z,6.90
2024-01-28T05:31:23.045Z,8.70
2024-01-28T05:33:51.186Z,7.70
2024-01-28T05:36:19.524Z,12.20
2024-01-28T05:38:47.711Z,10.80
2024-01-28T05:41:15.870Z,7.50
2024-01-28T05:43:43.897Z,9.60
2024-01-28T05:46:12.042Z,10.50
2024-01-28T05:48:40.401Z,6.60
2024-01-28T05:51:08.595Z,10.40
2024-01-28T05:53:36.802Z,14.80
2024-01-28T05:56:07.101Z,7.90
2024-01-28T05:58:36.208Z,8.00
2024-01-28T06:01:08.185Z,9.50
2024-01-28T06:03:37.075Z,9.40
2024-01-28T06:06:05.755Z,13.10
2024-01-28T06:08:34.251Z,8.20
2024-01-28T06:11:02.353Z,9.30
2024-01-28T06:13:30.563Z,10.50
2024-01-28T06:15:58.912Z,14.50
2024-01-28T06:18:27.197Z,11.40
2024-01-28T06:20:55.516Z,18.40
2024-01-28T06:23:23.731Z,10.20
2024-01-28T06:25:51.927Z,9.00
2024-01-28T06:28:20.290Z,10.30
2024-01-28T06:30:48.383Z,12.80
2024-01-28T06:33:17.740Z,12.60
2024-01-28T06:35:46.112Z,22.90
2024-01-28T06:38:14.850Z,13.10
2024-01-28T06:40:43.019Z,13.90
2024-01-28T06:43:11.144Z,10.30
2024-01-28T06:45:41.792Z,14.80
2024-01-28T06:48:13.158Z,12.70
2024-01-28T06:50:41.739Z,13.40
2024-01-28T06:53:18.567Z,10.30
2024-01-28T06:55:46.984Z,10.40
2024-01-28T06:58:18.389Z,16.30
2024-01-28T07:00:46.880Z,12.20
2024-01-28T07:03:15.329Z,10.90
2024-01-28T07:05:43.827Z,11.70
2024-01-28T07:08:15.132Z,16.80
2024-01-28T07:10:44.307Z,8.60
2024-01-28T07:13:12.630Z,10.50
2024-01-28T07:15:40.934Z,11.50
2024-01-28T07:18:12.421Z,11.20
2024-01-28T07:20:41.627Z,14.60
2024-01-28T07:23:09.831Z,13.80
2024-01-28T07:25:38.039Z,11.30
2024-01-28T07:28:06.681Z,9.90
2024-01-28T07:30:35.019Z,11.80
2024-01-28T07:33:03.389Z,11.80
2024-01-28T07:35:32.647Z,16.40
2024-01-28T07:38:01.198Z,13.50
2024-01-28T07:40:31.772Z,15.80
2024-01-28T07:43:00.021Z,12.50
2024-01-28T07:45:28.484Z,15.40
2024-01-28T07:47:57.451Z,17.90
2024-01-28T07:50:25.880Z,11.10
2024-01-28T07:52:54.222Z,14.70
2024-01-28T07:55:22.838Z,15.20
2024-01-28T07:57:52.409Z,13.60
2024-01-28T08:00:21.231Z,15.20
2024-01-28T08:02:49.773Z,16.20
2024-01-28T08:05:18.052Z,17.00
2024-01-28T08:07:46.320Z,10.60
2024-01-28T08:10:14.827Z,13.50
2024-01-28T08:12:43.180Z,9.90
2024-01-28T08:15:11.888Z,16.90
2024-01-28T08:17:45.027Z,12.80
2024-01-28T08:20:16.098Z,13.80
2024-01-28T08:22:48.420Z,16.00
2024-01-28T08:25:28.958Z,20.20
2024-01-28T08:31:31.184Z,10.50
2024-01-28T08:34:04.320Z,12.20
2024-01-28T08:36:36.942Z,13.40
2024-01-28T08:39:07.670Z,16.50
2024-01-28T08:41:40.531Z,13.40
2024-01-28T08:44:13.177Z,17.60
2024-01-28T08:46:43.588Z,13.70
2024-01-28T08:49:20.911Z,15.20
2024-01-28T08:51:51.910Z,15.90
2024-01-28T08:54:24.213Z,13.60
2024-01-28T08:56:56.353Z,17.70
2024-01-28T08:59:29.705Z,18.30
2024-01-28T09:01:59.447Z,15.50
2024-01-28T09:04:27.764Z,12.70
2024-01-28T09:07:01.260Z,16.30
2024-01-28T09:09:36.090Z,9.30
2024-01-28T09:12:30.472Z,15.80
2024-01-28T09:14:59.348Z,11.80
2024-01-28T09:17:27.821Z,10.70
2024-01-28T09:19:57.804Z,13.30
2024-01-28T09:22:33.416Z,11.60
2024-01-28T09:28:47.576Z,17.80
2024-01-28T09:31:17.599Z,15.80
2024-01-28T09:33:47.927Z,11.50
2024-01-28T09:36:16.278Z,13.20
2024-01-28T09:38:48.156Z,14.50
2024-01-28T09:41:33.304Z,11.50
2024-01-28T09:44:06.183Z,11.20
2024-01-28T09:46:37.473Z,15.40
2024-01-28T09:49:12.694Z,13.70
2024-01-28T09:51:45.238Z,11.60
2024-01-28T09:54:15.271Z,14.50
2024-01-28T09:56:45.581Z,13.90
2024-01-28T09:59:16.913Z,13.80
2024-01-28T10:01:53.091Z,11.80
2024-01-28T10:04:23.367Z,12.60
2024-01-28T10:06:54.623Z,12.00
2024-01-28T10:09:23.325Z,11.30
2024-01-28T10:11:52.805Z,16.20
2024-01-28T10:14:25.013Z,16.90
2024-01-28T10:16:54.097Z,12.00
2024-01-28T10:19:22.634Z,13.10
2024-01-28T10:21:50.924Z,11.40
2024-01-28T10:24:20.172Z,9.80
2024-01-28T10:26:48.568Z,11.50
2024-01-28T10:29:19.148Z,8.70
2024-01-28T10:31:48.524Z,11.50
2024-01-28T10:34:18.757Z,7.90
2024-01-28T10:36:49.243Z,9.40
2024-01-28T10:39:21.253Z,11.20
2024-01-28T10:41:56.183Z,9.80
2024-01-28T10:44:24.814Z,9.20
2024-01-28T10:46:57.707Z,12.40
2024-01-28T10:49:35.596Z,8.10
2024-01-28T10:52:05.254Z,10.00
2024-01-28T10:54:33.433Z,7.10
2024-01-28T10:57:05.122Z,10.50
2024-01-28T10:59:39.709Z,8.50
2024-01-28T11:02:08.499Z,7.60
2024-01-28T11:04:37.311Z,7.70
2024-01-28T11:07:07.212Z,5.80
2024-01-28T11:09:36.559Z,6.70
2024-01-28T11:12:05.912Z,8.00
2024-01-28T11:14:38.802Z,8.50
2024-01-28T11:17:12.003Z,9.10
2024-01-28T11:19:40.848Z,8.00
2024-01-28T11:22:18.403Z,8.90
2024-01-28T11:24:54.018Z,10.30
2024-01-28T11:27:22.387Z,9.70
2024-01-28T11:29:58.006Z,7.40
2024-01-28T11:32:36.889Z,10.10
2024-01-28T11:35:06.319Z,12.70
2024-01-28T11:37:44.963Z,6.90
2024-01-28T11:40:25.008Z,9.00
2024-01-28T11:42:58.330Z,8.10
2024-01-28T11:45:27.275Z,7.90
2024-01-28T11:47:55.563Z,12.80
2024-01-28T11:50:23.920Z,7.30
2024-01-28T11:52:52.307Z,8.50
2024-01-28T11:55:22.899Z,9.40
2024-01-28T11:57:51.457Z,9.50
2024-01-28T12:00:20.385Z,9.60
2024-01-28T12:02:48.720Z,12.00
2024-01-28T12:05:16.947Z,10.20
2024-01-28T12:07:47.206Z,9.80
2024-01-28T12:10:15.510Z,9.00
2024-01-28T12:12:44.410Z,9.50
2024-01-28T12:15:17.379Z,8.20
2024-01-28T12:17:46.671Z,9.30
2024-01-28T12:20:24.056Z,9.30
2024-01-28T12:22:55.414Z,14.50
2024-01-28T12:25:24.187Z,13.80
2024-01-28T12:27:52.967Z,10.60
2024-01-28T12:30:22.001Z,11.80
2024-01-28T12:32:50.853Z,13.20
2024-01-28T12:35:19.250Z,12.20
2024-01-28T12:37:47.895Z,14.00
2024-01-28T12:40:16.592Z,14.60
2024-01-28T12:42:44.898Z,13.70
2024-01-28T12:45:13.588Z,19.90
2024-01-28T12:47:42.296Z,14.30
2024-01-28T12:50:11.138Z,16.50
2024-01-28T12:52:40.143Z,15.70
2024-01-28T12:55:10.951Z,16.60
2024-01-28T12:57:44.020Z,13.10
2024-01-28T13:00:13.099Z,11.90
2024-01-28T13:02:42.032Z,11.50
2024-01-28T13:05:13.103Z,10.00
2024-01-28T13:07:42.177Z,13.50
2024-01-28T13:10:10.762Z,12.90
2024-01-28T13:12:40.144Z,10.60
2024-01-28T13:15:12.428Z,11.10
2024-01-28T13:17:44.136Z,14.70
2024-01-28T13:20:13.674Z,13.10
2024-01-28T13:22:46.477Z,15.50
2024-01-28T13:25:16.378Z,12.80
2024-01-28T13:27:44.744Z,14.00
2024-01-28T13:30:13.765Z,20.50
2024-01-28T13:32:44.003Z,18.40
2024-01-28T13:35:12.445Z,14.20
2024-01-28T13:37:42.620Z,19.10
2024-01-28T13:40:11.633Z,17.90
2024-01-28T13:42:40.287Z,21.00
2024-01-28T13:45:12.612Z,22.30
2024-01-28T13:47:42.655Z,25.40
2024-01-28T13:50:18.518Z,23.30
2024-01-28T13:52:50.269Z,22.90
2024-01-28T13:55:18.641Z,23.40
2024-01-28T13:57:47.149Z,25.60
2024-01-28T14:00:19.836Z,19.20
2024-01-28T14:02:48.304Z,19.80
2024-01-28T14:05:16.556Z,20.80
2024-01-28T14:07:45.050Z,17.90
2024-01-28T14:10:17.033Z,18.80
2024-01-28T14:12:48.978Z,18.60
2024-01-28T14:15:17.794Z,17.20
2024-01-28T14:17:48.186Z,14.60
2024-01-28T14:20:18.251Z,17.60
2024-01-28T14:22:48.107Z,15.20
2024-01-28T14:25:17.283Z,16.00
2024-01-28T14:27:46.443Z,13.90
2024-01-28T14:30:15.180Z,12.30
2024-01-28T14:32:43.483Z,14.90
2024-01-28T14:35:12.630Z,14.60
2024-01-28T14:37:41.602Z,20.20
2024-01-28T14:40:10.392Z,17.10
2024-01-28T14:42:38.671Z,17.00
2024-01-28T14:45:07.745Z,15.80
2024-01-28T14:47:36.245Z,18.20
2024-01-28T14:50:05.674Z,14.20
2024-01-28T14:52:34.306Z,16.30
2024-01-28T14:55:03.361Z,14.10
2024-01-28T14:57:31.858Z,12.30
2024-01-28T15:00:00.348Z,11.10
2024-01-28T15:02:30.705Z,15.10
2024-01-28T15:04:59.504Z,11.20
2024-01-28T15:07:27.932Z,11.70
2024-01-28T15:09:56.444Z,9.70
2024-01-28T15:12:25.991Z,13.90
2024-01-28T15:14:54.597Z,12.90
2024-01-28T15:17:23.118Z,12.20
2024-01-28T15:19:51.851Z,15.50
2024-01-28T15:22:24.460Z,15.40
2024-01-28T15:24:56.669Z,12.20
2024-01-28T15:27:27.476Z,12.00
2024-01-28T15:29:56.220Z,15.50
2024-01-28T15:32:24.618Z,11.70
2024-01-28T15:34:52.960Z,15.70
2024-01-28T15:37:21.383Z,12.80
2024-01-28T15:39:49.668Z,11.00
2024-01-28T15:42:18.364Z,17.40
2024-01-28T15:44:46.911Z,16.20
2024-01-28T15:47:16.761Z,19.10
2024-01-28T15:49:45.151Z,14.10
2024-01-28T15:52:14.309Z,13.70
2024-01-28T15:54:42.925Z,17.40
2024-01-28T15:57:11.952Z,13.20
2024-01-28T15:59:41.695Z,16.10
2024-01-28T16:02:09.945Z,15.10
2024-01-28T16:04:38.136Z,13.90
2024-01-28T16:07:06.350Z,10.80
2024-01-28T16:09:42.664Z,13.10
2024-01-28T16:12:16.843Z,11.90
2024-01-28T16:14:45.378Z,14.40
2024-01-28T16:17:14.438Z,15.30
2024-01-28T16:19:42.578Z,13.10
2024-01-28T16:22:11.987Z,10.70
2024-01-28T16:25:00.461Z,19.00
2024-01-28T16:27:31.212Z,13.70
2024-01-28T16:29:59.392Z,16.00
2024-01-28T16:32:28.360Z,19.40
2024-01-28T16:35:02.815Z,19.50
2024-01-28T16:37:32.410Z,22.10
2024-01-28T16:40:01.282Z,16.40
2024-01-28T16:42:31.973Z,18.70
2024-01-28T16:45:01.355Z,17.30
2024-01-28T16:47:32.627Z,16.20
2024-01-28T16:50:03.394Z,16.40
2024-01-28T16:52:31.485Z,19.10
2024-01-28T16:55:00.918Z,18.10
2024-01-28T16:57:30.493Z,17.60
2024-01-28T16:59:58.765Z,17.90
2024-01-28T17:02:27.024Z,14.50
2024-01-28T17:04:55.339Z,13.50
2024-01-28T17:07:24.526Z,16.70
2024-01-28T17:09:52.739Z,15.50
2024-01-28T17:12:20.843Z,17.00
2024-01-28T17:14:49.191Z,14.30
2024-01-28T17:17:19.960Z,15.60
2024-01-28T17:19:48.213Z,14.70
2024-01-28T17:22:17.156Z,14.00
2024-01-28T17:24:47.954Z,16.10
2024-01-28T17:27:16.089Z,15.30
2024-01-28T17:29:44.700Z,16.20
2024-01-28T17:32:13.073Z,17.10
2024-01-28T17:34:42.057Z,15.00
2024-01-28T17:37:10.492Z,16.80
2024-01-28T17:39:38.840Z,14.80
2024-01-28T17:42:12.601Z,14.20
2024-01-28T17:44:44.356Z,11.70
2024-01-28T17:47:12.873Z,15.00
2024-01-28T17:49:45.594Z,15.60
2024-01-28T17:52:19.983Z,16.90
2024-01-28T17:54:48.161Z,18.90
2024-01-28T17:57:16.728Z,18.70
2024-01-28T17:59:44.868Z,18.40
2024-01-28T18:02:15.493Z,18.70
2024-01-28T18:04:44.111Z,16.80
2024-01-28T18:07:12.490Z,18.20
2024-01-28T18:09:40.762Z,22.30
2024-01-28T18:12:10.222Z,22.60
2024-01-28T18:14:38.820Z,21.00
2024-01-28T18:17:07.016Z,21.80
2024-01-28T18:19:36.522Z,28.80
2024-01-28T18:22:05.183Z,26.20
2024-01-28T18:24:35.147Z,26.20
2024-01-28T18:27:03.725Z,23.00
2024-01-28T18:29:32.933Z,21.60
2024-01-28T18:32:01.624Z,20.50
2024-01-28T18:34:29.975Z,19.70
2024-01-28T18:36:58.475Z,19.30
2024-01-28T18:39:30.763Z,23.00
2024-01-28T18:42:00.542Z,21.00
2024-01-28T18:44:29.102Z,23.50
2024-01-28T18:46:59.533Z,26.20
2024-01-28T18:49:27.789Z,19.70
2024-01-28T18:51:58.276Z,20.50
2024-01-28T18:54:27.404Z,26.00
2024-01-28T18:56:56.957Z,31.00
2024-01-28T18:59:26.194Z,23.10
2024-01-28T19:01:54.788Z,31.30
2024-01-28T19:04:23.023Z,25.20
2024-01-28T19:06:52.861Z,25.50
2024-01-28T19:09:21.362Z,22.60
2024-01-28T19:11:49.726Z,21.50
2024-01-28T19:14:18.291Z,22.10
2024-01-28T19:16:46.625Z,22.80
2024-01-28T19:19:20.849Z,22.50
2024-01-28T19:21:49.320Z,22.40
2024-01-28T19:24:17.546Z,23.50
2024-01-28T19:26:45.929Z,19.60
2024-01-28T19:29:14.383Z,27.20
2024-01-28T19:31:44.663Z,21.00
2024-01-28T19:34:20.341Z,19.30
2024-01-28T19:36:49.016Z,22.20
2024-01-28T19:39:18.429Z,23.20
2024-01-28T19:41:47.744Z,22.70
2024-01-28T19:44:15.858Z,25.00
2024-01-28T19:46:44.181Z,18.50
2024-01-28T19:49:12.572Z,15.80
2024-01-28T19:51:40.773Z,25.30
2024-01-28T19:54:09.580Z,24.40
2024-01-28T19:56:37.864Z,24.40
2024-01-28T19:59:05.934Z,21.40
2024-01-28T20:01:36.159Z,19.60
2024-01-28T20:04:07.171Z,24.30
2024-01-28T20:06:37.760Z,24.70
2024-01-28T20:09:06.405Z,25.00
2024-01-28T20:11:37.643Z,23.70
2024-01-28T20:14:06.532Z,27.00
2024-01-28T20:16:34.821Z,24.30
2024-01-28T20:19:03.367Z,24.70
2024-01-28T20:21:34.307Z,27.60
2024-01-28T20:24:08.046Z,29.00
2024-01-28T20:26:36.191Z,24.90
2024-01-28T20:29:04.518Z,32.60
2024-01-28T20:31:35.692Z,27.20
2024-01-28T20:34:04.672Z,25.60
2024-01-28T20:36:33.137Z,28.30
2024-01-28T20:39:06.364Z,29.10
2024-01-28T20:41:39.590Z,23.50
2024-01-28T20:44:08.142Z,26.10
2024-01-28T20:46:37.451Z,30.90
2024-01-28T20:49:10.597Z,29.40
2024-01-28T20:51:43.944Z,28.40
2024-01-28T20:54:16.593Z,25.80
2024-01-28T20:56:45.369Z,30.60
2024-01-28T20:59:15.018Z,32.00
2024-01-28T21:01:45.846Z,31.90
2024-01-28T21:04:14.957Z,30.50
2024-01-28T21:06:44.332Z,26.70
2024-01-28T21:09:12.695Z,28.70
2024-01-28T21:11:41.649Z,26.90
2024-01-28T21:14:12.105Z,28.50
2024-01-28T21:16:42.202Z,34.00
2024-01-28T21:19:13.509Z,29.30
2024-01-28T21:21:42.734Z,28.70
2024-01-28T21:24:13.142Z,28.00
2024-01-28T21:26:42.358Z,26.80
2024-01-28T21:29:11.292Z,33.30
2024-01-28T21:31:39.969Z,28.10
2024-01-28T21:34:08.486Z,30.70
2024-01-28T21:36:36.704Z,32.60
2024-01-28T21:39:09.545Z,36.80
2024-01-28T21:41:37.874Z,30.00
2024-01-28T21:44:07.957Z,35.60
2024-01-28T21:46:36.383Z,33.10
2024-01-28T21:49:04.865Z,26.10
2024-01-28T21:51:33.421Z,30.70
2024-01-28T21:54:01.736Z,30.50
2024-01-28T21:56:30.843Z,26.40
2024-01-28T21:58:59.161Z,29.30
2024-01-28T22:01:27.466Z,26.80
2024-01-28T22:03:55.687Z,27.90
2024-01-28T22:06:24.957Z,26.40
2024-01-28T22:08:53.272Z,24.70
2024-01-28T22:11:21.575Z,26.50
2024-01-28T22:13:50.466Z,27.00
2024-01-28T22:16:20.048Z,28.30
2024-01-28T22:18:48.441Z,24.40
2024-01-28T22:21:17.351Z,27.60
2024-01-28T22:23:49.935Z,31.20
2024-01-28T22:26:20.994Z,29.10
2024-01-28T22:28:52.445Z,29.60
2024-01-28T22:31:20.649Z,40.20
2024-01-28T22:33:50.560Z,37.40
2024-01-28T22:36:19.080Z,37.40
2024-01-28T22:38:48.004Z,46.70
2024-01-28T22:41:19.910Z,42.60
2024-01-28T22:43:48.178Z,38.80
2024-01-28T22:46:16.359Z,46.40
2024-01-28T22:48:44.546Z,42.70
2024-01-28T22:51:13.933Z,35.70
2024-01-28T22:53:42.232Z,43.50
2024-01-28T22:56:10.967Z,40.70
2024-01-28T22:58:39.089Z,36.80
2024-01-28T23:01:10.871Z,43.00
2024-01-28T23:03:39.470Z,40.40
2024-01-28T23:06:15.762Z,39.70
2024-01-28T23:08:46.966Z,39.40
2024-01-28T23:11:15.484Z,32.10
2024-01-28T23:13:43.676Z,36.70
2024-01-28T23:16:12.124Z,37.30
2024-01-28T23:18:40.351Z,38.60
2024-01-28T23:21:08.698Z,34.00
2024-01-28T23:23:37.337Z,43.30
2024-01-28T23:26:05.413Z,46.10
2024-01-28T23:28:33.422Z,38.60
2024-01-28T23:31:01.637Z,33.70
2024-01-28T23:33:30.199Z,39.90
2024-01-28T23:35:58.443Z,45.40
2024-01-28T23:38:27.415Z,39.60
2024-01-28T23:40:55.738Z,45.00
2024-01-28T23:43:23.973Z,43.50
2024-01-28T23:45:52.153Z,40.30
2024-01-28T23:48:22.244Z,43.10
2024-01-28T23:50:52.532Z,38.80
2024-01-28T23:53:23.026Z,49.30
2024-01-28T23:55:51.145Z,39.40
2024-01-28T23:58:21.163Z,44.90
